Time;durP1;ratioP1;P1;durP2;ratioP2;P2;SDS_P1;SDS_P2;PMS_P1;PMS_P2;Temp;Humidity;BMP_temperature;BMP_pressure;BME280_temperature;BME280_humidity;BME280_pressure;Samples;Min_cycle;Max_cycle;Signal;HPM_P1;HPM_P2
2023/01/15 00:00:58;;;;;;;3.60;1.93;;;;;;;;;;5114911;28;20572;-69
2023/01/15 00:03:24;;;;;;;5.50;2.33;;;;;;;;;;5114235;28;20199;-69
2023/01/15 00:05:49;;;;;;;4.67;1.90;;;;;;;;;;5115322;28;20180;-69
2023/01/15 00:08:16;;;;;;;9.07;3.83;;;;;;;;;;5121266;28;20179;-70
2023/01/15 00:10:42;;;;;;;6.97;3.93;;;;;;;;;;5129549;28;20200;-69
2023/01/15 00:13:08;;;;;;;3.27;2.13;;;;;;;;;;5122149;28;20208;-69
2023/01/15 00:15:34;;;;;;;8.70;3.10;;;;;;;;;;5116929;28;20562;-69
2023/01/15 00:18:00;;;;;;;13.73;7.27;;;;;;;;;;5115109;28;20529;-69
2023/01/15 00:20:26;;;;;;;13.97;7.33;;;;;;;;;;5113939;28;20264;-70
2023/01/15 00:22:52;;;;;;;8.70;3.17;;;;;;;;;;5113875;28;20216;-69
2023/01/15 00:28:02;;;;;;;8.53;3.40;;;;;;;;;;5114388;28;20187;-70
2023/01/15 00:30:29;;;;;;;5.00;1.97;;;;;;;;;;5113637;28;20180;-69
2023/01/15 00:32:54;;;;;;;6.13;2.60;;;;;;;;;;5113570;28;20192;-70
2023/01/15 00:35:22;;;;;;;5.03;2.40;;;;;;;;;;5112337;28;20181;-71
2023/01/15 00:37:48;;;;;;;4.70;2.47;;;;;;;;;;5116151;28;20172;-70
2023/01/15 00:40:15;;;;;;;5.97;2.10;;;;;;;;;;5116476;28;20254;-69
2023/01/15 00:42:41;;;;;;;4.83;1.93;;;;;;;;;;5117651;28;20204;-70
2023/01/15 00:45:11;;;;;;;2.33;1.67;;;;;;;;;;5117906;28;20171;-69
2023/01/15 00:47:38;;;;;;;6.93;2.13;;;;;;;;;;5117655;28;20229;-70
2023/01/15 00:50:05;;;;;;;5.27;1.90;;;;;;;;;;5118777;28;20642;-70
2023/01/15 00:52:31;;;;;;;4.30;1.60;;;;;;;;;;5127876;22;20233;-73
2023/01/15 00:54:57;;;;;;;4.60;1.77;;;;;;;;;;5097529;28;20158;-75
2023/01/15 00:57:23;;;;;;;4.93;1.80;;;;;;;;;;5098871;28;20177;-74
2023/01/15 00:59:49;;;;;;;4.77;1.50;;;;;;;;;;5099126;28;20248;-74
2023/01/15 01:02:15;;;;;;;5.63;1.50;;;;;;;;;;5098600;28;20272;-74
2023/01/15 01:04:41;;;;;;;5.43;2.07;;;;;;;;;;5098808;28;20223;-73
2023/01/15 01:07:07;;;;;;;4.23;1.50;;;;;;;;;;5098875;28;20174;-75
2023/01/15 01:09:33;;;;;;;3.73;1.57;;;;;;;;;;5098769;28;20177;-73
2023/01/15 01:11:59;;;;;;;7.50;1.90;;;;;;;;;;5097226;28;20195;-71
2023/01/15 01:14:25;;;;;;;3.87;1.83;;;;;;;;;;5097622;28;20655;-73
2023/01/15 01:16:51;;;;;;;2.27;1.37;;;;;;;;;;5097465;28;20642;-71
2023/01/15 01:19:19;;;;;;;7.17;2.17;;;;;;;;;;5098692;28;20207;-73
2023/01/15 01:21:45;;;;;;;4.17;1.50;;;;;;;;;;5098597;28;20184;-73
2023/01/15 01:24:12;;;;;;;6.90;1.50;;;;;;;;;;5098021;28;20200;-73
2023/01/15 01:26:38;;;;;;;5.77;1.67;;;;;;;;;;5098587;28;20180;-72
2023/01/15 01:29:04;;;;;;;2.73;1.37;;;;;;;;;;5098362;28;20184;-72
2023/01/15 01:31:30;;;;;;;5.17;1.23;;;;;;;;;;5098350;28;20252;-72
2023/01/15 01:33:57;;;;;;;3.03;1.70;;;;;;;;;;5098786;28;20200;-72
2023/01/15 01:36:26;;;;;;;2.40;1.50;;;;;;;;;;5099147;28;20245;-71
2023/01/15 01:38:52;;;;;;;2.33;1.30;;;;;;;;;;5099449;28;20169;-73
2023/01/15 01:41:18;;;;;;;3.10;1.37;;;;;;;;;;5107004;28;20213;-72
2023/01/15 01:43:52;;;;;;;3.33;1.57;;;;;;;;;;5110094;28;20199;-71
2023/01/15 01:46:18;;;;;;;5.87;1.53;;;;;;;;;;5108874;28;20200;-72
2023/01/15 01:48:45;;;;;;;2.30;1.27;;;;;;;;;;5099872;28;20169;-72
2023/01/15 01:51:11;;;;;;;4.33;1.60;;;;;;;;;;5097964;28;20205;-72
2023/01/15 01:53:38;;;;;;;4.10;1.67;;;;;;;;;;5097808;28;20212;-72
2023/01/15 01:56:05;;;;;;;4.83;1.63;;;;;;;;;;5097732;28;20268;-72
2023/01/15 01:58:32;;;;;;;4.90;1.60;;;;;;;;;;5096383;28;20185;-73
2023/01/15 02:00:59;;;;;;;2.23;1.50;;;;;;;;;;5097293;28;20261;-74
2023/01/15 02:03:27;;;;;;;2.27;1.60;;;;;;;;;;5096271;28;20198;-72
2023/01/15 02:05:54;;;;;;;3.73;1.70;;;;;;;;;;5097315;28;20180;-70
2023/01/15 02:08:21;;;;;;;4.53;2.00;;;;;;;;;;5097343;28;20223;-73
2023/01/15 02:10:49;;;;;;;8.47;2.07;;;;;;;;;;5096847;28;20596;-71
2023/01/15 02:13:30;;;;;;;3.63;1.43;;;;;;;;;;5095661;28;20254;-74
2023/01/15 02:16:13;;;;;;;5.30;1.57;;;;;;;;;;5097210;28;20251;-72
2023/01/15 02:18:49;;;;;;;8.33;1.90;;;;;;;;;;5095984;28;20180;-72
2023/01/15 02:21:41;;;;;;;5.93;2.03;;;;;;;;;;5097115;28;20227;-70
2023/01/15 02:24:07;;;;;;;4.77;1.53;;;;;;;;;;5097095;28;20193;-72
2023/01/15 02:26:39;;;;;;;3.37;1.70;;;;;;;;;;5096316;28;20177;-73
2023/01/15 02:29:08;;;;;;;4.77;1.57;;;;;;;;;;5097742;28;20260;-73
2023/01/15 02:31:36;;;;;;;4.07;1.50;;;;;;;;;;5096974;28;20568;-72
2023/01/15 02:34:05;;;;;;;4.87;1.93;;;;;;;;;;5096879;28;20192;-72
2023/01/15 02:36:34;;;;;;;3.87;1.57;;;;;;;;;;5095362;28;20188;-71
2023/01/15 02:39:02;;;;;;;8.17;1.77;;;;;;;;;;5095408;28;20177;-73
2023/01/15 02:41:31;;;;;;;6.53;1.70;;;;;;;;;;5095746;28;20189;-73
2023/01/15 02:43:57;;;;;;;5.77;1.83;;;;;;;;;;5095297;28;20200;-71
2023/01/15 02:46:25;;;;;;;5.63;1.93;;;;;;;;;;5096036;28;20200;-72
2023/01/15 02:48:53;;;;;;;3.03;1.47;;;;;;;;;;5095318;28;20188;-72
2023/01/15 02:51:24;;;;;;;3.97;1.80;;;;;;;;;;5096817;28;20546;-73
2023/01/15 02:53:53;;;;;;;6.37;1.83;;;;;;;;;;5096253;28;20208;-70
2023/01/15 02:56:20;;;;;;;6.57;1.80;;;;;;;;;;5095690;28;20201;-72
2023/01/15 02:58:47;;;;;;;4.50;1.53;;;;;;;;;;5094293;28;20177;-73
2023/01/15 03:01:16;;;;;;;3.97;1.70;;;;;;;;;;5094221;28;20224;-72
2023/01/15 03:03:46;;;;;;;6.93;1.80;;;;;;;;;;5095569;28;20196;-72
2023/01/15 03:06:17;;;;;;;5.57;1.90;;;;;;;;;;5096187;28;20685;-71
2023/01/15 03:08:43;;;;;;;6.40;2.00;;;;;;;;;;5096058;28;20165;-73
2023/01/15 03:11:10;;;;;;;3.50;1.50;;;;;;;;;;5095362;28;20181;-72
2023/01/15 03:13:47;;;;;;;4.33;1.67;;;;;;;;;;5095785;28;20193;-74
2023/01/15 03:16:36;;;;;;;9.17;1.97;;;;;;;;;;5095264;28;20161;-72
2023/01/15 03:19:02;;;;;;;5.00;1.80;;;;;;;;;;5095209;28;20225;-72
2023/01/15 03:21:46;;;;;;;8.20;2.00;;;;;;;;;;5095186;28;20267;-72
2023/01/15 03:24:13;;;;;;;7.23;1.90;;;;;;;;;;5093539;28;20743;-72
2023/01/15 03:26:39;;;;;;;5.30;2.10;;;;;;;;;;5093707;28;20241;-72
2023/01/15 03:29:07;;;;;;;5.60;2.00;;;;;;;;;;5094600;28;20208;-71
2023/01/15 03:31:34;;;;;;;3.00;1.50;;;;;;;;;;5094028;28;20181;-72
2023/01/15 03:34:00;;;;;;;8.10;1.90;;;;;;;;;;5095166;28;20686;-71
2023/01/15 03:36:26;;;;;;;6.27;1.70;;;;;;;;;;5095547;28;20172;-73
2023/01/15 03:38:52;;;;;;;3.17;1.40;;;;;;;;;;5095162;28;20169;-71
2023/01/15 03:41:26;;;;;;;5.23;1.80;;;;;;;;;;5096174;28;20204;-71
2023/01/15 03:44:15;;;;;;;7.33;2.07;;;;;;;;;;5094319;28;20280;-71
2023/01/15 03:46:57;;;;;;;5.27;1.77;;;;;;;;;;5086582;28;20669;-72
2023/01/15 03:49:37;;;;;;;6.33;1.67;;;;;;;;;;5095639;28;20153;-70
2023/01/15 03:52:07;;;;;;;8.33;1.87;;;;;;;;;;5095041;28;20544;-72
2023/01/15 03:54:40;;;;;;;6.17;2.93;;;;;;;;;;5093537;28;20185;-74
2023/01/15 03:57:27;;;;;;;6.20;2.27;;;;;;;;;;5093871;28;20195;-71
2023/01/15 03:59:55;;;;;;;5.77;1.83;;;;;;;;;;5095016;28;20255;-73
2023/01/15 04:02:21;;;;;;;5.53;2.00;;;;;;;;;;5093910;28;20204;-72
2023/01/15 04:04:49;;;;;;;6.47;2.10;;;;;;;;;;5093948;28;20209;-70
2023/01/15 04:07:15;;;;;;;7.73;2.00;;;;;;;;;;5095311;28;20177;-71
2023/01/15 04:09:41;;;;;;;7.17;1.70;;;;;;;;;;5095272;28;20181;-71
2023/01/15 04:12:07;;;;;;;9.30;2.40;;;;;;;;;;5096976;28;20180;-72
2023/01/15 04:14:33;;;;;;;9.33;2.10;;;;;;;;;;5099683;28;20183;-72
2023/01/15 04:16:59;;;;;;;7.70;2.20;;;;;;;;;;5099387;28;20174;-71
2023/01/15 04:19:25;;;;;;;3.50;1.80;;;;;;;;;;5098382;28;20541;-73
2023/01/15 04:21:51;;;;;;;6.43;1.90;;;;;;;;;;5096919;28;20176;-69
2023/01/15 04:24:17;;;;;;;9.97;2.10;;;;;;;;;;5098555;28;20753;-70
2023/01/15 04:26:43;;;;;;;6.10;1.90;;;;;;;;;;5097216;28;20183;-70
2023/01/15 04:29:09;;;;;;;6.30;2.30;;;;;;;;;;5098600;28;20377;-70
2023/01/15 04:31:35;;;;;;;7.57;2.03;;;;;;;;;;5098221;28;20237;-71
2023/01/15 04:34:02;;;;;;;7.30;2.10;;;;;;;;;;5097741;28;20758;-72
2023/01/15 04:36:28;;;;;;;9.30;2.57;;;;;;;;;;5096731;28;20532;-72
2023/01/15 04:38:56;;;;;;;7.60;2.27;;;;;;;;;;5098550;28;20205;-72
2023/01/15 04:44:07;;;;;;;8.40;1.83;;;;;;;;;;5098725;28;20636;-72
2023/01/15 04:46:38;;;;;;;6.80;2.87;;;;;;;;;;5098695;28;20220;-73
2023/01/15 04:49:05;;;;;;;6.97;2.07;;;;;;;;;;5098123;28;20577;-71
2023/01/15 04:51:31;;;;;;;9.07;2.43;;;;;;;;;;5098383;28;20188;-72
2023/01/15 04:53:57;;;;;;;9.50;2.10;;;;;;;;;;5098766;28;20216;-73
2023/01/15 04:56:23;;;;;;;6.37;2.00;;;;;;;;;;5098136;28;20179;-72
2023/01/15 04:58:49;;;;;;;12.60;2.50;;;;;;;;;;5096784;28;20234;-72
2023/01/15 05:01:16;;;;;;;9.10;2.03;;;;;;;;;;5097602;28;20205;-72
2023/01/15 05:03:42;;;;;;;8.00;2.10;;;;;;;;;;5097094;28;20666;-72
2023/01/15 05:06:09;;;;;;;6.60;2.33;;;;;;;;;;5098352;28;20181;-72
2023/01/15 05:08:35;;;;;;;6.00;2.33;;;;;;;;;;5096590;28;20185;-72
2023/01/15 05:11:05;;;;;;;9.10;1.83;;;;;;;;;;5097526;28;20188;-71
2023/01/15 05:13:32;;;;;;;9.50;1.87;;;;;;;;;;5097200;28;20201;-71
2023/01/15 05:16:18;;;;;;;9.73;2.37;;;;;;;;;;5097151;28;20185;-71
2023/01/15 05:18:45;;;;;;;6.50;2.67;;;;;;;;;;5083830;28;20192;-72
2023/01/15 05:21:19;;;;;;;8.73;2.00;;;;;;;;;;5098578;28;20270;-72
2023/01/15 05:23:45;;;;;;;7.17;2.10;;;;;;;;;;5096476;28;20592;-72
2023/01/15 05:26:11;;;;;;;12.23;2.90;;;;;;;;;;5098009;28;20176;-72
2023/01/15 05:28:37;;;;;;;9.30;2.60;;;;;;;;;;5098115;28;20169;-70
2023/01/15 05:31:10;;;;;;;8.83;2.40;;;;;;;;;;5097666;28;20173;-72
2023/01/15 05:33:37;;;;;;;8.00;2.27;;;;;;;;;;5097858;28;20200;-71
2023/01/15 05:36:04;;;;;;;12.83;2.73;;;;;;;;;;5096541;28;20184;-73
2023/01/15 05:38:30;;;;;;;12.07;2.17;;;;;;;;;;5097748;28;20182;-74
2023/01/15 05:40:56;;;;;;;9.57;2.40;;;;;;;;;;5096577;28;20204;-72
2023/01/15 05:43:22;;;;;;;6.37;2.37;;;;;;;;;;5097445;28;20669;-71
2023/01/15 05:45:48;;;;;;;5.50;2.00;;;;;;;;;;5096141;28;20173;-71
2023/01/15 05:48:14;;;;;;;12.83;2.50;;;;;;;;;;5097204;28;20184;-72
2023/01/15 05:50:40;;;;;;;11.57;2.30;;;;;;;;;;5096700;28;20223;-73
2023/01/15 05:53:07;;;;;;;13.00;2.60;;;;;;;;;;5097247;28;20219;-71
2023/01/15 05:55:33;;;;;;;10.33;2.17;;;;;;;;;;5095530;28;20271;-73
2023/01/15 05:57:59;;;;;;;9.70;2.47;;;;;;;;;;5096126;28;20196;-73
2023/01/15 06:00:25;;;;;;;14.90;2.80;;;;;;;;;;5097484;28;20201;-73
2023/01/15 06:02:51;;;;;;;9.03;2.47;;;;;;;;;;5095719;28;20204;-73
2023/01/15 06:05:19;;;;;;;13.90;2.57;;;;;;;;;;5097083;28;20207;-73
2023/01/15 06:07:47;;;;;;;11.27;2.53;;;;;;;;;;5096210;28;20202;-72
2023/01/15 06:10:14;;;;;;;9.20;2.70;;;;;;;;;;5097343;28;20213;-71
2023/01/15 06:12:40;;;;;;;6.57;2.00;;;;;;;;;;5095600;28;20201;-71
2023/01/15 06:15:07;;;;;;;10.53;2.23;;;;;;;;;;5095764;28;20177;-72
2023/01/15 06:17:33;;;;;;;11.67;2.70;;;;;;;;;;5095936;28;20203;-71
2023/01/15 06:19:59;;;;;;;8.33;2.27;;;;;;;;;;5095240;28;20209;-73
2023/01/15 06:22:25;;;;;;;12.10;3.03;;;;;;;;;;5096027;28;20218;-72
2023/01/15 06:24:50;;;;;;;8.40;2.70;;;;;;;;;;5095722;28;20175;-71
2023/01/15 06:27:16;;;;;;;11.13;2.80;;;;;;;;;;5094364;28;20555;-70
2023/01/15 06:29:42;;;;;;;6.33;2.33;;;;;;;;;;5096078;28;20177;-72
2023/01/15 06:32:08;;;;;;;8.57;2.20;;;;;;;;;;5094288;28;20185;-72
2023/01/15 06:34:35;;;;;;;12.90;2.93;;;;;;;;;;5094352;28;20605;-72
2023/01/15 06:37:01;;;;;;;13.03;2.87;;;;;;;;;;5095531;28;20169;-72
2023/01/15 06:39:27;;;;;;;11.97;2.73;;;;;;;;;;5095713;28;20177;-71
2023/01/15 06:47:23;;;;;;;9.83;2.30;;;;;;;;;;5095714;28;20172;-71
2023/01/15 06:49:49;;;;;;;9.77;2.30;;;;;;;;;;5095463;28;20230;-71
2023/01/15 06:52:15;;;;;;;9.60;2.90;;;;;;;;;;5095374;28;20280;-72
2023/01/15 06:54:41;;;;;;;9.00;2.10;;;;;;;;;;5096057;28;20278;-71
2023/01/15 06:57:07;;;;;;;7.53;2.43;;;;;;;;;;5096018;28;20184;-72
2023/01/15 06:59:33;;;;;;;9.40;2.43;;;;;;;;;;5095593;28;20608;-72
2023/01/15 07:02:00;;;;;;;8.27;2.40;;;;;;;;;;5123172;22;20228;-71
2023/01/15 07:04:26;;;;;;;9.90;2.47;;;;;;;;;;5115135;28;20182;-70
2023/01/15 07:06:51;;;;;;;8.17;2.70;;;;;;;;;;5114821;28;20168;-71
2023/01/15 07:09:17;;;;;;;6.93;2.30;;;;;;;;;;5113507;28;20229;-71
2023/01/15 07:11:49;;;;;;;8.60;2.60;;;;;;;;;;5114727;28;20218;-70
2023/01/15 07:14:19;;;;;;;5.27;2.10;;;;;;;;;;5115298;28;20583;-71
2023/01/15 07:16:45;;;;;;;9.27;2.40;;;;;;;;;;5115159;28;20173;-71
2023/01/15 07:19:11;;;;;;;7.67;2.40;;;;;;;;;;5114640;28;20180;-71
2023/01/15 07:21:37;;;;;;;8.60;2.20;;;;;;;;;;5113106;28;20176;-71
2023/01/15 07:24:03;;;;;;;9.67;1.77;;;;;;;;;;5115252;28;20177;-71
2023/01/15 07:26:29;;;;;;;9.40;2.80;;;;;;;;;;5114627;28;20173;-71
2023/01/15 07:28:55;;;;;;;9.77;2.50;;;;;;;;;;5113335;28;20672;-71
2023/01/15 07:31:21;;;;;;;7.50;2.00;;;;;;;;;;5114756;28;20187;-71
2023/01/15 07:33:47;;;;;;;5.70;2.27;;;;;;;;;;5115016;28;20196;-72
2023/01/15 07:36:14;;;;;;;9.20;2.43;;;;;;;;;;5118648;28;20204;-70
2023/01/15 07:38:40;;;;;;;6.00;2.30;;;;;;;;;;5115605;28;20624;-70
2023/01/15 07:52:04;;;;;;;6.73;2.50;;;;;;;;;;5114219;28;20200;-71
2023/01/15 07:54:30;;;;;;;8.33;2.33;;;;;;;;;;5112946;28;20172;-72
2023/01/15 07:56:56;;;;;;;10.10;2.03;;;;;;;;;;5112847;28;20267;-70
2023/01/15 07:59:23;;;;;;;10.13;2.60;;;;;;;;;;5112635;28;20215;-71
2023/01/15 08:01:49;;;;;;;8.57;2.10;;;;;;;;;;5112914;28;20292;-70
2023/01/15 08:04:15;;;;;;;5.93;2.47;;;;;;;;;;5114331;28;20192;-70
2023/01/15 08:06:41;;;;;;;10.13;2.67;;;;;;;;;;5112835;28;20183;-71
2023/01/15 08:09:07;;;;;;;8.10;2.27;;;;;;;;;;5114197;28;20172;-73
2023/01/15 08:17:03;;;;;;;6.23;2.33;;;;;;;;;;5114397;28;20653;-71
2023/01/15 08:19:29;;;;;;;6.87;1.87;;;;;;;;;;5113907;28;20176;-71
2023/01/15 08:21:56;;;;;;;8.07;2.20;;;;;;;;;;5112525;28;20200;-70
2023/01/15 08:24:22;;;;;;;4.80;2.00;;;;;;;;;;5114000;28;20665;-71
2023/01/15 08:26:48;;;;;;;4.77;2.10;;;;;;;;;;5113696;28;20172;-71
2023/01/15 08:29:14;;;;;;;5.47;2.23;;;;;;;;;;5114609;28;20172;-70
2023/01/15 08:31:40;;;;;;;5.40;2.00;;;;;;;;;;5113935;28;20187;-71
2023/01/15 08:34:09;;;;;;;7.37;1.90;;;;;;;;;;5113963;28;20191;-71
2023/01/15 08:36:35;;;;;;;8.00;2.50;;;;;;;;;;5113972;28;20177;-71
2023/01/15 08:39:01;;;;;;;6.00;2.10;;;;;;;;;;5112780;28;20184;-70
2023/01/15 08:41:27;;;;;;;8.17;2.47;;;;;;;;;;5112323;28;20578;-71
2023/01/15 08:43:53;;;;;;;4.57;1.93;;;;;;;;;;5114063;28;20308;-71
2023/01/15 08:46:19;;;;;;;6.53;1.90;;;;;;;;;;5113869;28;20176;-71
2023/01/15 08:48:46;;;;;;;2.80;1.73;;;;;;;;;;5112434;28;20271;-71
2023/01/15 08:51:12;;;;;;;10.07;2.13;;;;;;;;;;5112359;28;20641;-71
2023/01/15 08:53:38;;;;;;;3.57;1.70;;;;;;;;;;5113616;28;20284;-70
2023/01/15 08:56:04;;;;;;;5.00;1.77;;;;;;;;;;5113733;27;20177;-71
2023/01/15 08:58:31;;;;;;;6.67;2.40;;;;;;;;;;5117258;28;20191;-68
2023/01/15 09:01:04;;;;;;;9.40;2.67;;;;;;;;;;5117624;28;20227;-71
2023/01/15 09:03:30;;;;;;;4.90;2.80;;;;;;;;;;5117367;28;20295;-72
2023/01/15 09:06:00;;;;;;;5.23;2.13;;;;;;;;;;5116480;28;20219;-70
2023/01/15 09:08:26;;;;;;;30.37;16.50;;;;;;;;;;5117434;28;20176;-71
2023/01/15 09:10:57;;;;;;;8.10;2.93;;;;;;;;;;5116409;28;20187;-71
2023/01/15 09:13:23;;;;;;;12.10;6.73;;;;;;;;;;5116098;28;20200;-71
2023/01/15 09:15:49;;;;;;;7.73;3.73;;;;;;;;;;5117692;28;20530;-71
2023/01/15 09:18:17;;;;;;;3.43;2.40;;;;;;;;;;5118091;28;20642;-71
2023/01/15 09:20:44;;;;;;;6.20;2.13;;;;;;;;;;5117220;28;20207;-71
2023/01/15 09:23:10;;;;;;;3.87;1.83;;;;;;;;;;5117018;28;20199;-70
2023/01/15 09:25:36;;;;;;;5.27;1.90;;;;;;;;;;5116974;28;20180;-71
2023/01/15 09:28:02;;;;;;;7.00;1.73;;;;;;;;;;5117015;28;20280;-71
2023/01/15 09:30:28;;;;;;;4.50;2.03;;;;;;;;;;5117384;28;20180;-71
2023/01/15 09:32:54;;;;;;;3.30;1.70;;;;;;;;;;5115690;28;20294;-70
2023/01/15 09:35:24;;;;;;;5.73;1.80;;;;;;;;;;5115545;28;20176;-71
2023/01/15 09:37:51;;;;;;;7.37;1.83;;;;;;;;;;5117047;28;20718;-71
2023/01/15 09:40:34;;;;;;;4.47;1.80;;;;;;;;;;5117173;28;20570;-71
2023/01/15 09:43:04;;;;;;;8.90;3.40;;;;;;;;;;5115426;28;20199;-71
2023/01/15 09:45:37;;;;;;;8.03;2.20;;;;;;;;;;5115479;28;20183;-71
2023/01/15 09:48:21;;;;;;;8.33;4.50;;;;;;;;;;5115427;28;20642;-71
2023/01/15 09:50:47;;;;;;;6.20;2.47;;;;;;;;;;5116892;28;20176;-70
2023/01/15 09:53:23;;;;;;;7.07;2.20;;;;;;;;;;5116801;28;20304;-71
2023/01/15 09:55:49;;;;;;;6.57;1.73;;;;;;;;;;5115129;28;20188;-71
2023/01/15 09:58:18;;;;;;;6.33;2.30;;;;;;;;;;5115171;28;20298;-71
2023/01/15 10:00:46;;;;;;;6.57;2.57;;;;;;;;;;5115678;28;20685;-71
2023/01/15 10:03:21;;;;;;;7.37;2.13;;;;;;;;;;5114968;28;20216;-71
2023/01/15 10:05:52;;;;;;;7.77;2.60;;;;;;;;;;5116588;28;20168;-71
2023/01/15 10:08:24;;;;;;;6.33;2.40;;;;;;;;;;5116726;28;20626;-72
2023/01/15 10:10:54;;;;;;;9.67;3.00;;;;;;;;;;5116648;28;20176;-71
2023/01/15 10:13:26;;;;;;;14.67;3.23;;;;;;;;;;5116500;28;20200;-71
2023/01/15 10:15:52;;;;;;;4.43;2.03;;;;;;;;;;5116743;28;20165;-71
2023/01/15 10:18:20;;;;;;;9.00;2.53;;;;;;;;;;5116353;28;20181;-71
2023/01/15 10:21:06;;;;;;;7.07;2.40;;;;;;;;;;5115884;28;20215;-71
2023/01/15 10:23:35;;;;;;;5.00;1.70;;;;;;;;;;5115193;28;20287;-71
2023/01/15 10:26:09;;;;;;;9.00;2.27;;;;;;;;;;5116705;28;20309;-70
2023/01/15 10:29:05;;;;;;;7.67;1.83;;;;;;;;;;5116498;28;20169;-71
2023/01/15 10:31:46;;;;;;;7.20;1.77;;;;;;;;;;5098276;28;20185;-71
2023/01/15 10:34:29;;;;;;;7.37;2.07;;;;;;;;;;5115277;28;20622;-72
2023/01/15 10:37:03;;;;;;;10.23;2.93;;;;;;;;;;5115512;28;20179;-71
2023/01/15 10:39:42;;;;;;;10.03;2.80;;;;;;;;;;5115947;28;20168;-71
2023/01/15 10:42:14;;;;;;;9.03;2.67;;;;;;;;;;5114304;28;20695;-72
2023/01/15 10:44:59;;;;;;;5.90;1.93;;;;;;;;;;5114281;28;20179;-71
2023/01/15 10:47:36;;;;;;;9.90;2.53;;;;;;;;;;5116330;28;20173;-69
2023/01/15 10:50:05;;;;;;;7.90;2.23;;;;;;;;;;5116204;28;20169;-70
2023/01/15 10:52:32;;;;;;;12.53;2.57;;;;;;;;;;5115081;28;20200;-71
2023/01/15 10:55:14;;;;;;;6.13;2.47;;;;;;;;;;5116460;28;20657;-70
2023/01/15 10:58:01;;;;;;;7.87;2.47;;;;;;;;;;5116406;28;20180;-68
2023/01/15 11:00:27;;;;;;;4.77;2.13;;;;;;;;;;5103634;28;20215;-67
2023/01/15 11:03:07;;;;;;;6.83;2.53;;;;;;;;;;5116220;28;20219;-70
2023/01/15 11:05:35;;;;;;;10.67;3.00;;;;;;;;;;5116365;28;20607;-69
2023/01/15 11:08:02;;;;;;;7.87;2.80;;;;;;;;;;5116230;28;20169;-70
2023/01/15 11:10:28;;;;;;;9.70;2.13;;;;;;;;;;5116189;28;20176;-69
2023/01/15 11:21:29;;;;;;;5.90;2.37;;;;;;;;;;5118467;28;20211;-68
2023/01/15 11:23:56;;;;;;;6.93;2.40;;;;;;;;;;5118397;28;20173;-68
2023/01/15 11:26:24;;;;;;;6.77;2.60;;;;;;;;;;5117637;28;20225;-69
2023/01/15 11:28:50;;;;;;;6.73;2.17;;;;;;;;;;5114911;28;20176;-69
2023/01/15 11:31:16;;;;;;;7.47;3.23;;;;;;;;;;5116561;28;20190;-69
2023/01/15 11:33:57;;;;;;;6.33;2.40;;;;;;;;;;5114642;28;20204;-69
2023/01/15 11:36:25;;;;;;;8.60;2.23;;;;;;;;;;5114739;28;20573;-70
2023/01/15 11:38:51;;;;;;;7.50;2.43;;;;;;;;;;5113756;28;20188;-69
2023/01/15 11:52:38;;;;;;;5.30;1.80;;;;;;;;;;5117837;28;20207;-69
2023/01/15 11:55:10;;;;;;;2.17;1.83;;;;;;;;;;5116323;28;20200;-70
2023/01/15 11:57:36;;;;;;;3.47;1.70;;;;;;;;;;5116684;28;20168;-68
2023/01/15 12:00:03;;;;;;;4.70;2.23;;;;;;;;;;5115541;28;20294;-69
2023/01/15 12:02:43;;;;;;;7.60;2.40;;;;;;;;;;5115117;28;20211;-70
2023/01/15 12:05:20;;;;;;;5.90;2.60;;;;;;;;;;5113207;28;20192;-70
2023/01/15 12:07:47;;;;;;;7.57;3.33;;;;;;;;;;5115790;28;20180;-71
2023/01/15 12:11:02;;;;;;;5.97;1.90;;;;;;;;;;5114091;28;20184;-70
2023/01/15 12:13:22;;;;;;;4.13;2.20;;;;;;;;;;5116101;28;20300;-70
2023/01/15 12:16:10;;;;;;;6.50;2.00;;;;;;;;;;5116204;28;20175;-70
2023/01/15 12:18:46;;;;;;;8.67;2.67;;;;;;;;;;5116555;28;20207;-69
2023/01/15 12:21:12;;;;;;;4.53;2.83;;;;;;;;;;5115787;28;20196;-70
2023/01/15 12:23:41;;;;;;;3.67;1.43;;;;;;;;;;5113649;28;20192;-69
2023/01/15 12:26:16;;;;;;;6.03;2.23;;;;;;;;;;5114482;28;20630;-69
2023/01/15 12:28:50;;;;;;;3.57;1.70;;;;;;;;;;5114773;28;20184;-69
2023/01/15 12:31:20;;;;;;;5.90;2.10;;;;;;;;;;5116494;28;20248;-70
2023/01/15 12:33:48;;;;;;;2.57;1.73;;;;;;;;;;5119985;28;20196;-70
2023/01/15 12:36:23;;;;;;;5.27;2.23;;;;;;;;;;5119788;28;20255;-69
2023/01/15 12:38:49;;;;;;;3.90;1.97;;;;;;;;;;5119731;28;20652;-70
2023/01/15 12:41:22;;;;;;;5.03;2.07;;;;;;;;;;5121336;28;20257;-70
2023/01/15 12:46:38;;;;;;;5.57;2.17;;;;;;;;;;5122417;28;20316;-70
2023/01/15 12:49:09;;;;;;;2.13;1.50;;;;;;;;;;5123824;28;20215;-70
2023/01/15 12:51:45;;;;;;;3.43;1.50;;;;;;;;;;5126354;28;20563;-72
2023/01/15 12:54:13;;;;;;;3.40;1.73;;;;;;;;;;5125124;28;20164;-69
2023/01/15 12:56:41;;;;;;;3.97;2.03;;;;;;;;;;5127578;28;20176;-70
2023/01/15 12:59:25;;;;;;;6.90;2.60;;;;;;;;;;5126372;28;20183;-70
2023/01/15 13:02:10;;;;;;;3.97;2.00;;;;;;;;;;5124763;28;20693;-70
2023/01/15 13:07:12;;;;;;;5.47;2.20;;;;;;;;;;5160139;22;20232;-73
2023/01/15 13:09:49;;;;;;;6.03;2.50;;;;;;;;;;5118987;28;20169;-72
2023/01/15 13:12:16;;;;;;;5.17;2.17;;;;;;;;;;5118825;28;20601;-72
2023/01/15 13:14:42;;;;;;;3.67;2.20;;;;;;;;;;5116979;28;20176;-70
2023/01/15 13:17:26;;;;;;;2.47;1.60;;;;;;;;;;5118360;28;20189;-73
2023/01/15 13:20:01;;;;;;;3.73;2.00;;;;;;;;;;5117322;28;20287;-71
2023/01/15 13:22:29;;;;;;;3.30;1.77;;;;;;;;;;5117481;28;20248;-70
2023/01/15 13:25:11;;;;;;;2.70;1.63;;;;;;;;;;5118534;28;20202;-72
2023/01/15 13:27:49;;;;;;;5.00;1.87;;;;;;;;;;5118969;28;20156;-70
2023/01/15 13:30:34;;;;;;;5.70;2.00;;;;;;;;;;5117796;28;20652;-71
2023/01/15 13:33:20;;;;;;;4.37;1.70;;;;;;;;;;5117767;28;20267;-73
2023/01/15 13:35:48;;;;;;;3.90;1.67;;;;;;;;;;5118843;28;20222;-71
2023/01/15 13:38:17;;;;;;;2.80;1.90;;;;;;;;;;5117616;28;20635;-72
2023/01/15 13:40:49;;;;;;;5.90;1.80;;;;;;;;;;5118082;28;20615;-70
2023/01/15 13:43:26;;;;;;;3.53;1.73;;;;;;;;;;5118171;27;20603;-70
2023/01/15 13:45:52;;;;;;;6.27;1.83;;;;;;;;;;5118567;28;20669;-71
2023/01/15 13:48:22;;;;;;;3.40;1.80;;;;;;;;;;5116713;28;20225;-71
2023/01/15 13:50:52;;;;;;;5.53;1.77;;;;;;;;;;5118598;28;20157;-73
2023/01/15 13:53:25;;;;;;;4.87;2.00;;;;;;;;;;5118191;28;20180;-72
2023/01/15 13:55:54;;;;;;;7.77;1.93;;;;;;;;;;5118647;28;20200;-73
2023/01/15 13:58:31;;;;;;;3.10;1.60;;;;;;;;;;5116797;28;20195;-72
2023/01/15 14:01:05;;;;;;;4.50;1.83;;;;;;;;;;5116820;28;20196;-72
2023/01/15 14:03:32;;;;;;;4.17;2.23;;;;;;;;;;5118094;28;20172;-72
2023/01/15 14:05:59;;;;;;;5.60;2.03;;;;;;;;;;5118693;28;20695;-72
2023/01/15 14:08:27;;;;;;;5.03;1.70;;;;;;;;;;5116810;28;20187;-72
2023/01/15 14:10:54;;;;;;;3.90;2.73;;;;;;;;;;5116500;28;20184;-70
2023/01/15 14:13:26;;;;;;;10.67;6.03;;;;;;;;;;5116570;28;20184;-73
2023/01/15 14:15:57;;;;;;;12.63;6.50;;;;;;;;;;5116050;28;20206;-72
2023/01/15 14:18:41;;;;;;;10.17;5.87;;;;;;;;;;5115745;28;20758;-72
2023/01/15 14:21:13;;;;;;;4.47;1.97;;;;;;;;;;5116413;28;20281;-70
2023/01/15 14:23:58;;;;;;;3.73;1.50;;;;;;;;;;5116535;28;20181;-69
2023/01/15 14:26:27;;;;;;;8.53;5.97;;;;;;;;;;5115418;28;20208;-72
2023/01/15 14:29:01;;;;;;;6.53;4.00;;;;;;;;;;5116191;28;20176;-71
2023/01/15 14:31:46;;;;;;;7.70;5.63;;;;;;;;;;5116931;28;20172;-73
2023/01/15 14:34:12;;;;;;;8.27;3.73;;;;;;;;;;5115646;28;20209;-71
2023/01/15 14:36:56;;;;;;;9.80;5.47;;;;;;;;;;5117121;28;20574;-71
2023/01/15 14:39:34;;;;;;;6.87;3.23;;;;;;;;;;5116125;28;20180;-71
2023/01/15 14:44:58;;;;;;;3.80;2.00;;;;;;;;;;5117259;28;20180;-71
2023/01/15 14:47:26;;;;;;;5.10;2.20;;;;;;;;;;5115716;28;20184;-72
2023/01/15 14:50:03;;;;;;;4.20;2.03;;;;;;;;;;5114532;28;20180;-72
2023/01/15 14:52:30;;;;;;;1.87;1.60;;;;;;;;;;5113801;28;20179;-73
2023/01/15 14:54:58;;;;;;;7.37;2.10;;;;;;;;;;5115425;28;20187;-71
2023/01/15 14:57:24;;;;;;;4.67;1.87;;;;;;;;;;5115301;28;20177;-72
2023/01/15 14:59:59;;;;;;;3.10;1.53;;;;;;;;;;5116261;28;20283;-72
2023/01/15 15:02:31;;;;;;;5.93;2.13;;;;;;;;;;5116256;27;20168;-70
2023/01/15 15:04:58;;;;;;;3.20;1.73;;;;;;;;;;5116025;28;20156;-72
2023/01/15 15:07:30;;;;;;;6.63;2.10;;;;;;;;;;5116420;28;20632;-72
2023/01/15 15:10:00;;;;;;;3.63;1.70;;;;;;;;;;5116400;28;20187;-73
2023/01/15 15:12:45;;;;;;;4.33;1.90;;;;;;;;;;5115779;28;20650;-72
2023/01/15 15:15:19;;;;;;;4.60;2.20;;;;;;;;;;5115827;28;20203;-71
2023/01/15 15:17:51;;;;;;;4.23;2.13;;;;;;;;;;5115724;28;20206;-71
2023/01/15 15:20:23;;;;;;;4.03;2.20;;;;;;;;;;5115792;28;20625;-71
2023/01/15 15:22:52;;;;;;;4.47;1.87;;;;;;;;;;5115574;28;20211;-71
2023/01/15 15:25:21;;;;;;;6.00;1.70;;;;;;;;;;5115020;28;20536;-73
2023/01/15 15:27:47;;;;;;;12.33;2.20;;;;;;;;;;5114668;28;20176;-72
2023/01/15 15:30:15;;;;;;;3.83;1.60;;;;;;;;;;5115072;28;20184;-71
2023/01/15 15:32:43;;;;;;;3.73;1.80;;;;;;;;;;5115560;28;20176;-72
2023/01/15 15:35:29;;;;;;;2.70;1.73;;;;;;;;;;5116093;28;20211;-72
2023/01/15 15:37:55;;;;;;;2.30;1.60;;;;;;;;;;5115359;28;20168;-72
2023/01/15 15:40:26;;;;;;;6.97;1.97;;;;;;;;;;5115133;28;20276;-72
2023/01/15 15:48:44;;;;;;;4.30;1.80;;;;;;;;;;5117130;28;20251;-71
2023/01/15 15:51:39;;;;;;;3.93;2.10;;;;;;;;;;5115251;28;20188;-72
2023/01/15 15:54:08;;;;;;;2.90;1.70;;;;;;;;;;5106343;28;20188;-72
2023/01/15 15:56:34;;;;;;;8.50;1.93;;;;;;;;;;5116238;28;20248;-72